Ubc Sacramento — P3CH9 — position and weather

sailwx.info

Track history (hours):
 
Tides and Currents Weather Stations Pressure Air Temp Water Temp Dewpoint Dewpoint Depression Visibility Wind Speed Wind Dir Waves Ship Positions

Ubc Sacramento

Last reported at 2018-Apr-25 19:58 UTC. Time now 2018-Apr-25 20:20 UTC.
Position N 39°48' W 075°25'.

Length 172 m; draft 6.2 m.

Type: Cargo ship. MMSI: 209393000.

Date/timePositionNaut miles runAvg speedWind from/ knotsBaromVisibWave heightAir tempDewpointWater temp
2018-Apr-25 19:58N 39°48' W 075°25'0 0.0
2018-Apr-25 19:28N 39°48' W 075°25'0 0.0
2018-Apr-25 18:58N 39°48' W 075°25'0 0.0
2018-Apr-25 18:28N 39°48' W 075°25'0 0.0
2018-Apr-25 17:58N 39°48' W 075°25'0 0.0
2018-Apr-25 17:28N 39°48' W 075°25'0 0.0
2018-Apr-25 16:58N 39°48' W 075°25'0 0.0
2018-Apr-25 16:28N 39°48' W 075°25'0 0.0
2018-Apr-25 15:58N 39°48' W 075°25'0 0.0
2018-Apr-25 15:28N 39°48' W 075°25'0 0.0
2018-Apr-25 14:58N 39°48' W 075°25'0 0.4
2018-Apr-25 14:28N 39°48' W 075°25'0 0.1
2018-Apr-25 13:58N 39°48' W 075°25'0 0.0
2018-Apr-25 13:28N 39°48' W 075°25'0 0.0
2018-Apr-25 12:58N 39°48' W 075°25'0 0.0
2018-Apr-25 12:28N 39°48' W 075°25'0 0.0
2018-Apr-25 12:00N 39°48' W 075°25'0 0.0
2018-Apr-25 11:30N 39°48' W 075°25'0 0.0
2018-Apr-25 10:58N 39°48' W 075°25'0 0.0
2018-Apr-25 10:30N 39°48' W 075°25'0 0.3
2018-Apr-25 10:00N 39°48' W 075°25'2 3.8
2018-Apr-25 09:30N 39°47' W 075°27'3 6.9
2018-Apr-25 09:00N 39°44' W 075°30'5 9.8
2018-Apr-25 08:30N 39°40' W 075°32'510.6
2018-Apr-25 08:00N 39°34' W 075°33'713.1
2018-Apr-25 07:30N 39°28' W 075°34'713.2
2018-Apr-25 07:00N 39°23' W 075°28'713.5
2018-Apr-25 06:30N 39°18' W 075°23'713.2
2018-Apr-25 06:00N 39°13' W 075°17'713.7
2018-Apr-25 05:30N 39°07' W 075°13'713.9
2018-Apr-25 05:00N 39°01' W 075°09'  
2018-Apr-20 04:19N 36°56' W 075°52'411.8
2018-Apr-20 03:59N 36°56' W 075°57'5 9.3
2018-Apr-20 03:30N 36°58' W 076°02'713.3
2018-Apr-20 02:59N 37°04' W 076°06'4914.6
2018-Apr-19 23:40N 37°53' W 076°10'315.5
2018-Apr-19 23:27N 37°56' W 076°11'714.8
2018-Apr-19 23:00N 38°03' W 076°13'4014.4
2018-Apr-19 20:11N 38°42' W 076°26'315.0
2018-Apr-19 20:00N 38°45' W 076°26'815.2
2018-Apr-19 19:30N 38°52' W 076°24'612.3
2018-Apr-19 19:01N 38°58' W 076°24'0 0.0
2018-Apr-19 18:31N 38°58' W 076°24'0 0.5
2018-Apr-19 18:00N 38°58' W 076°24'510.6
2018-Apr-19 17:30N 39°04' W 076°23'713.5
2018-Apr-19 17:00N 39°10' W 076°26'713.3
2018-Apr-19 16:30N 39°14' W 076°33'4 7.1
2018-Apr-19 16:00N 39°17' W 076°36'0 0.0
2018-Apr-19 15:30N 39°17' W 076°36'0 0.0
2018-Apr-19 15:00N 39°17' W 076°36'0 0.0
2018-Apr-19 14:30N 39°17' W 076°36'0 0.0
2018-Apr-19 14:00N 39°17' W 076°36'0 0.0
2018-Apr-19 13:30N 39°17' W 076°36'0 0.0
2018-Apr-19 13:00N 39°17' W 076°36'0 0.0
2018-Apr-19 12:30N 39°17' W 076°36'0 0.0
2018-Apr-19 12:00N 39°17' W 076°36'0 0.0
2018-Apr-19 11:30N 39°17' W 076°36'0 0.0
2018-Apr-19 11:00N 39°17' W 076°36'0 0.0
2018-Apr-19 10:30N 39°17' W 076°36'0 0.0
2018-Apr-19 10:00N 39°17' W 076°36'0 0.0
2018-Apr-19 09:30N 39°17' W 076°36'0 0.0
2018-Apr-19 09:00N 39°17' W 076°36'0 0.0
2018-Apr-19 08:30N 39°17' W 076°36'0 0.0
2018-Apr-19 08:00N 39°17' W 076°36'0 0.0
2018-Apr-19 07:30N 39°17' W 076°36'0 0.0
2018-Apr-19 07:00N 39°17' W 076°36'0 0.0
2018-Apr-19 06:30N 39°17' W 076°36'0 0.0
2018-Apr-19 06:00N 39°17' W 076°36'0 0.0
2018-Apr-19 05:30N 39°17' W 076°36'0 0.0
2018-Apr-19 05:00N 39°17' W 076°36'0 0.0
2018-Apr-19 04:30N 39°17' W 076°36'0 0.0
2018-Apr-19 04:00N 39°17' W 076°36'0 0.0
2018-Apr-19 03:30N 39°17' W 076°36'0 0.0
2018-Apr-19 03:00N 39°17' W 076°36'0 0.0
2018-Apr-19 02:30N 39°17' W 076°36'0 0.0
2018-Apr-19 02:00N 39°17' W 076°36'0 0.0
2018-Apr-19 01:30N 39°17' W 076°36'0 0.0
2018-Apr-19 01:00N 39°17' W 076°36'0 0.0
2018-Apr-19 00:30N 39°17' W 076°36'0 0.0
2018-Apr-19 00:00N 39°17' W 076°36'0 0.0
2018-Apr-18 23:30N 39°17' W 076°36'0 0.0
2018-Apr-18 23:00N 39°17' W 076°36'0 0.0
2018-Apr-18 22:30N 39°17' W 076°36'0 0.0
2018-Apr-18 22:00N 39°17' W 076°36'0 0.0
2018-Apr-18 21:30N 39°17' W 076°36'0 0.0
2018-Apr-18 21:00N 39°17' W 076°36'0 0.0
2018-Apr-18 20:30N 39°17' W 076°36'0 0.0
2018-Apr-18 20:00N 39°17' W 076°36'0 0.0
2018-Apr-18 19:30N 39°17' W 076°36'0 0.0
2018-Apr-18 19:00N 39°17' W 076°36'0 0.0
2018-Apr-18 18:30N 39°17' W 076°36'0 0.0
2018-Apr-18 18:00N 39°17' W 076°36'0 0.0
2018-Apr-18 17:30N 39°17' W 076°36'0 0.0
2018-Apr-18 17:00N 39°17' W 076°36'0 0.0
2018-Apr-18 16:30N 39°17' W 076°36'0 0.0
2018-Apr-18 16:00N 39°17' W 076°36'0 0.0
2018-Apr-18 15:30N 39°17' W 076°36'0 0.0
2018-Apr-18 14:57N 39°17' W 076°36'0 0.0
2018-Apr-18 14:30N 39°17' W 076°36'0 0.0
2018-Apr-18 14:00N 39°17' W 076°36'0 0.0
2018-Apr-18 13:30N 39°17' W 076°36'0 0.0
2018-Apr-18 13:00N 39°17' W 076°36'0 0.0
2018-Apr-18 12:30N 39°17' W 076°36'0 0.0
2018-Apr-18 12:00N 39°17' W 076°36'0 0.0
2018-Apr-18 11:30N 39°17' W 076°36'0 0.0
2018-Apr-18 11:00N 39°17' W 076°36'0 0.0
2018-Apr-18 10:30N 39°17' W 076°36'0 0.0
2018-Apr-18 10:00N 39°17' W 076°36'0 0.0
2018-Apr-18 09:30N 39°17' W 076°36'0 0.0
2018-Apr-18 09:00N 39°17' W 076°36'0 0.0
2018-Apr-18 08:30N 39°17' W 076°36'0 0.0
2018-Apr-18 08:00N 39°17' W 076°36'0 0.0
2018-Apr-18 07:30N 39°17' W 076°36'0 0.0
2018-Apr-18 07:00N 39°17' W 076°36'0 0.0
2018-Apr-18 06:30N 39°17' W 076°36'0 0.0
2018-Apr-18 06:00N 39°17' W 076°36'0 0.0
2018-Apr-18 05:30N 39°17' W 076°36'0 0.0
2018-Apr-18 05:00N 39°17' W 076°36'0 0.0
2018-Apr-18 04:30N 39°17' W 076°36'0 0.0
2018-Apr-18 04:00N 39°17' W 076°36'0 0.0
2018-Apr-18 03:30N 39°17' W 076°36'0 0.0
2018-Apr-18 03:00N 39°17' W 076°36'0 0.0
2018-Apr-18 02:30N 39°17' W 076°36'0 0.0
2018-Apr-18 02:00N 39°17' W 076°36'0 0.0
2018-Apr-18 01:30N 39°17' W 076°36'0 0.0
2018-Apr-18 01:00N 39°17' W 076°36'0 0.0
2018-Apr-18 00:30N 39°17' W 076°36'0 0.0
2018-Apr-18 00:00N 39°17' W 076°36'0 0.0
2018-Apr-17 23:30N 39°17' W 076°36'0 0.0
2018-Apr-17 23:00N 39°17' W 076°36'0 0.0
2018-Apr-17 22:30N 39°17' W 076°36'0 0.0
2018-Apr-17 22:00N 39°17' W 076°36'0 0.0
2018-Apr-17 21:29N 39°17' W 076°36'0 0.0
2018-Apr-17 21:00N 39°17' W 076°36'0 0.0
2018-Apr-17 20:30N 39°17' W 076°36'0 0.0
2018-Apr-17 20:00N 39°17' W 076°36'0 0.0
2018-Apr-17 19:30N 39°17' W 076°36'0 0.0
2018-Apr-17 19:00N 39°17' W 076°36'0 0.0
2018-Apr-17 18:30N 39°17' W 076°36'0 0.0
2018-Apr-17 18:00N 39°17' W 076°36'0 0.0
2018-Apr-17 17:29N 39°17' W 076°36'0 0.0
2018-Apr-17 17:00N 39°17' W 076°36'0 0.0
2018-Apr-17 16:30N 39°17' W 076°36'0 0.0
2018-Apr-17 15:59N 39°17' W 076°36'0 0.0
2018-Apr-17 15:30N 39°17' W 076°36'0 0.0
2018-Apr-17 15:00N 39°17' W 076°36'0 0.0
2018-Apr-17 14:29N 39°17' W 076°36'0 0.0
2018-Apr-17 14:00N 39°17' W 076°36'0 0.0
2018-Apr-17 13:30N 39°17' W 076°36'0 0.0
2018-Apr-17 13:00N 39°17' W 076°36'0 0.0
2018-Apr-17 12:30N 39°17' W 076°36'0 0.0
2018-Apr-17 12:00N 39°17' W 076°36'0 0.0
2018-Apr-17 11:30N 39°17' W 076°36'0 0.0
2018-Apr-17 11:00N 39°17' W 076°36'0 0.0
2018-Apr-17 10:30N 39°17' W 076°36'0 0.0
2018-Apr-17 10:00N 39°17' W 076°36'0 0.0
2018-Apr-17 09:30N 39°17' W 076°36'0 0.0
2018-Apr-17 09:00N 39°17' W 076°36'0 0.0
2018-Apr-17 08:30N 39°17' W 076°36'0 0.0
2018-Apr-17 08:00N 39°17' W 076°36'0 0.0
2018-Apr-17 07:30N 39°17' W 076°36'0 0.0
2018-Apr-17 07:00N 39°17' W 076°36'0 0.0
2018-Apr-17 06:26N 39°17' W 076°36'0 0.0
2018-Apr-17 06:00N 39°17' W 076°36'0 0.0
2018-Apr-17 05:30N 39°17' W 076°36'0 0.0
2018-Apr-17 05:00N 39°17' W 076°36'0 0.0
2018-Apr-17 04:29N 39°17' W 076°36'0 0.0
2018-Apr-17 04:00N 39°17' W 076°36'0 0.0
2018-Apr-17 03:30N 39°17' W 076°36'0 0.0
2018-Apr-17 02:59N 39°17' W 076°36'0 0.0
2018-Apr-17 02:30N 39°17' W 076°36'0 0.0
2018-Apr-17 02:00N 39°17' W 076°36'0 0.0
2018-Apr-17 01:29N 39°17' W 076°36'0 0.0
2018-Apr-17 01:00N 39°17' W 076°36'0 0.0
2018-Apr-17 00:30N 39°17' W 076°36'0 0.0
2018-Apr-16 23:59N 39°17' W 076°36'0 0.0
2018-Apr-16 23:30N 39°17' W 076°36'0 0.0
2018-Apr-16 22:59N 39°17' W 076°36'0 0.0
2018-Apr-16 22:30N 39°17' W 076°36'0 0.0
2018-Apr-16 21:59N 39°17' W 076°36'0 0.0
2018-Apr-16 21:29N 39°17' W 076°36'0 0.0
2018-Apr-16 21:00N 39°17' W 076°36'0 0.0
2018-Apr-16 20:30N 39°17' W 076°36'0 0.0
2018-Apr-16 20:00N 39°17' W 076°36'0 0.0
2018-Apr-16 19:30N 39°17' W 076°36'0 0.0
2018-Apr-16 18:59N 39°17' W 076°36'0 0.0
2018-Apr-16 18:30N 39°17' W 076°36'0 0.0
2018-Apr-16 17:56N 39°17' W 076°36'0 0.0
2018-Apr-16 17:30N 39°17' W 076°36'0 0.0
2018-Apr-16 17:00N 39°17' W 076°36'0 0.0
2018-Apr-16 16:26N 39°17' W 076°36'0 0.0
2018-Apr-16 16:00N 39°17' W 076°36'0 0.0
2018-Apr-16 15:29N 39°17' W 076°36'0 0.0
2018-Apr-16 15:00N 39°17' W 076°36'0 0.0
2018-Apr-16 14:29N 39°17' W 076°36'0 0.0
2018-Apr-16 14:00N 39°17' W 076°36'0 0.0
2018-Apr-16 13:30N 39°17' W 076°36'0 0.0
2018-Apr-16 13:00N 39°17' W 076°36'0 0.0
2018-Apr-16 12:30N 39°17' W 076°36'0 0.0
2018-Apr-16 12:00N 39°17' W 076°36'0 0.0
2018-Apr-16 11:29N 39°17' W 076°36'0 0.0
2018-Apr-16 10:56N 39°17' W 076°36'0 0.0
2018-Apr-16 10:26N 39°17' W 076°36'0 0.0
2018-Apr-16 10:00N 39°17' W 076°36'0 0.0
2018-Apr-16 09:30N 39°17' W 076°36'0 0.0
2018-Apr-16 08:59N 39°17' W 076°36'0 0.0
2018-Apr-16 08:30N 39°17' W 076°36'0 0.0
2018-Apr-16 08:00N 39°17' W 076°36'0 0.0
2018-Apr-16 07:30N 39°17' W 076°36'0 0.0
2018-Apr-16 06:56N 39°17' W 076°36'0 0.0
2018-Apr-16 06:29N 39°17' W 076°36'0 0.0
2018-Apr-16 06:00N 39°17' W 076°36'0 0.0
2018-Apr-16 05:30N 39°17' W 076°36'0 0.0
2018-Apr-16 05:00N 39°17' W 076°36'0 0.0
2018-Apr-16 04:29N 39°17' W 076°36'0 0.0
2018-Apr-16 04:00N 39°17' W 076°36'0 0.0
2018-Apr-16 03:30N 39°17' W 076°36'0 0.0
2018-Apr-16 03:00N 39°17' W 076°36'0 0.0
2018-Apr-16 02:30N 39°17' W 076°36'0 0.0
2018-Apr-16 02:00N 39°17' W 076°36'0 0.0
2018-Apr-16 01:29N 39°17' W 076°36'0 0.0
2018-Apr-16 01:00N 39°17' W 076°36'0 0.0
2018-Apr-16 00:26N 39°17' W 076°36'0 0.0
2018-Apr-15 23:59N 39°17' W 076°36'0 0.0
2018-Apr-15 23:30N 39°17' W 076°36'0 0.0
2018-Apr-15 22:56N 39°17' W 076°36'0 0.0
2018-Apr-15 22:26N 39°17' W 076°36'0 0.0
2018-Apr-15 21:56N 39°17' W 076°36'0 0.0
2018-Apr-15 21:26N 39°17' W 076°36'0 0.0
2018-Apr-15 21:00N 39°17' W 076°36'0 0.0
2018-Apr-15 20:30N 39°17' W 076°36'0 0.0
2018-Apr-15 19:59N 39°17' W 076°36'  
Track history (hours):
 
Tides and Currents Weather Stations Pressure Air Temp Water Temp Dewpoint Dewpoint Depression Visibility Wind Speed Wind Dir Waves Ship Positions

Ubc Sacramento

Last reported at 2018-Apr-25 19:58 UTC. Time now 2018-Apr-25 20:20 UTC.
Position N 39°48' W 075°25'.

Length 172 m; draft 6.2 m.

Type: Cargo ship. MMSI: 209393000.

Date/timePositionNaut miles runAvg speedWind from/ knotsBaromVisibWave heightAir tempDewpointWater temp
2018-Apr-25 19:58N 39°48' W 075°25'0 0.0
2018-Apr-25 19:28N 39°48' W 075°25'0 0.0
2018-Apr-25 18:58N 39°48' W 075°25'0 0.0
2018-Apr-25 18:28N 39°48' W 075°25'0 0.0
2018-Apr-25 17:58N 39°48' W 075°25'0 0.0
2018-Apr-25 17:28N 39°48' W 075°25'0 0.0
2018-Apr-25 16:58N 39°48' W 075°25'0 0.0
2018-Apr-25 16:28N 39°48' W 075°25'0 0.0
2018-Apr-25 15:58N 39°48' W 075°25'0 0.0
2018-Apr-25 15:28N 39°48' W 075°25'0 0.0
2018-Apr-25 14:58N 39°48' W 075°25'0 0.4
2018-Apr-25 14:28N 39°48' W 075°25'0 0.1
2018-Apr-25 13:58N 39°48' W 075°25'0 0.0
2018-Apr-25 13:28N 39°48' W 075°25'0 0.0
2018-Apr-25 12:58N 39°48' W 075°25'0 0.0
2018-Apr-25 12:28N 39°48' W 075°25'0 0.0
2018-Apr-25 12:00N 39°48' W 075°25'0 0.0
2018-Apr-25 11:30N 39°48' W 075°25'0 0.0
2018-Apr-25 10:58N 39°48' W 075°25'0 0.0
2018-Apr-25 10:30N 39°48' W 075°25'0 0.3
2018-Apr-25 10:00N 39°48' W 075°25'2 3.8
2018-Apr-25 09:30N 39°47' W 075°27'3 6.9
2018-Apr-25 09:00N 39°44' W 075°30'5 9.8
2018-Apr-25 08:30N 39°40' W 075°32'510.6
2018-Apr-25 08:00N 39°34' W 075°33'713.1
2018-Apr-25 07:30N 39°28' W 075°34'713.2
2018-Apr-25 07:00N 39°23' W 075°28'713.5
2018-Apr-25 06:30N 39°18' W 075°23'713.2
2018-Apr-25 06:00N 39°13' W 075°17'713.7
2018-Apr-25 05:30N 39°07' W 075°13'713.9
2018-Apr-25 05:00N 39°01' W 075°09'  
2018-Apr-20 04:19N 36°56' W 075°52'411.8
2018-Apr-20 03:59N 36°56' W 075°57'5 9.3
2018-Apr-20 03:30N 36°58' W 076°02'713.3
2018-Apr-20 02:59N 37°04' W 076°06'4914.6
2018-Apr-19 23:40N 37°53' W 076°10'315.5
2018-Apr-19 23:27N 37°56' W 076°11'714.8
2018-Apr-19 23:00N 38°03' W 076°13'4014.4
2018-Apr-19 20:11N 38°42' W 076°26'315.0
2018-Apr-19 20:00N 38°45' W 076°26'815.2
2018-Apr-19 19:30N 38°52' W 076°24'612.3
2018-Apr-19 19:01N 38°58' W 076°24'0 0.0
2018-Apr-19 18:31N 38°58' W 076°24'0 0.5
2018-Apr-19 18:00N 38°58' W 076°24'510.6
2018-Apr-19 17:30N 39°04' W 076°23'713.5
2018-Apr-19 17:00N 39°10' W 076°26'713.3
2018-Apr-19 16:30N 39°14' W 076°33'4 7.1
2018-Apr-19 16:00N 39°17' W 076°36'0 0.0
2018-Apr-19 15:30N 39°17' W 076°36'0 0.0
2018-Apr-19 15:00N 39°17' W 076°36'0 0.0
2018-Apr-19 14:30N 39°17' W 076°36'0 0.0
2018-Apr-19 14:00N 39°17' W 076°36'0 0.0
2018-Apr-19 13:30N 39°17' W 076°36'0 0.0
2018-Apr-19 13:00N 39°17' W 076°36'0 0.0
2018-Apr-19 12:30N 39°17' W 076°36'0 0.0
2018-Apr-19 12:00N 39°17' W 076°36'0 0.0
2018-Apr-19 11:30N 39°17' W 076°36'0 0.0
2018-Apr-19 11:00N 39°17' W 076°36'0 0.0
2018-Apr-19 10:30N 39°17' W 076°36'0 0.0
2018-Apr-19 10:00N 39°17' W 076°36'0 0.0
2018-Apr-19 09:30N 39°17' W 076°36'0 0.0
2018-Apr-19 09:00N 39°17' W 076°36'0 0.0
2018-Apr-19 08:30N 39°17' W 076°36'0 0.0
2018-Apr-19 08:00N 39°17' W 076°36'0 0.0
2018-Apr-19 07:30N 39°17' W 076°36'0 0.0
2018-Apr-19 07:00N 39°17' W 076°36'0 0.0
2018-Apr-19 06:30N 39°17' W 076°36'0 0.0
2018-Apr-19 06:00N 39°17' W 076°36'0 0.0
2018-Apr-19 05:30N 39°17' W 076°36'0 0.0
2018-Apr-19 05:00N 39°17' W 076°36'0 0.0
2018-Apr-19 04:30N 39°17' W 076°36'0 0.0
2018-Apr-19 04:00N 39°17' W 076°36'0 0.0
2018-Apr-19 03:30N 39°17' W 076°36'0 0.0
2018-Apr-19 03:00N 39°17' W 076°36'0 0.0
2018-Apr-19 02:30N 39°17' W 076°36'0 0.0
2018-Apr-19 02:00N 39°17' W 076°36'0 0.0
2018-Apr-19 01:30N 39°17' W 076°36'0 0.0
2018-Apr-19 01:00N 39°17' W 076°36'0 0.0
2018-Apr-19 00:30N 39°17' W 076°36'0 0.0
2018-Apr-19 00:00N 39°17' W 076°36'0 0.0
2018-Apr-18 23:30N 39°17' W 076°36'0 0.0
2018-Apr-18 23:00N 39°17' W 076°36'0 0.0
2018-Apr-18 22:30N 39°17' W 076°36'0 0.0
2018-Apr-18 22:00N 39°17' W 076°36'0 0.0
2018-Apr-18 21:30N 39°17' W 076°36'0 0.0
2018-Apr-18 21:00N 39°17' W 076°36'0 0.0
2018-Apr-18 20:30N 39°17' W 076°36'0 0.0
2018-Apr-18 20:00N 39°17' W 076°36'0 0.0
2018-Apr-18 19:30N 39°17' W 076°36'0 0.0
2018-Apr-18 19:00N 39°17' W 076°36'0 0.0
2018-Apr-18 18:30N 39°17' W 076°36'0 0.0
2018-Apr-18 18:00N 39°17' W 076°36'0 0.0
2018-Apr-18 17:30N 39°17' W 076°36'0 0.0
2018-Apr-18 17:00N 39°17' W 076°36'0 0.0
2018-Apr-18 16:30N 39°17' W 076°36'0 0.0
2018-Apr-18 16:00N 39°17' W 076°36'0 0.0
2018-Apr-18 15:30N 39°17' W 076°36'0 0.0
2018-Apr-18 14:57N 39°17' W 076°36'0 0.0
2018-Apr-18 14:30N 39°17' W 076°36'0 0.0
2018-Apr-18 14:00N 39°17' W 076°36'0 0.0
2018-Apr-18 13:30N 39°17' W 076°36'0 0.0
2018-Apr-18 13:00N 39°17' W 076°36'0 0.0
2018-Apr-18 12:30N 39°17' W 076°36'0 0.0
2018-Apr-18 12:00N 39°17' W 076°36'0 0.0
2018-Apr-18 11:30N 39°17' W 076°36'0 0.0
2018-Apr-18 11:00N 39°17' W 076°36'0 0.0
2018-Apr-18 10:30N 39°17' W 076°36'0 0.0
2018-Apr-18 10:00N 39°17' W 076°36'0 0.0
2018-Apr-18 09:30N 39°17' W 076°36'0 0.0
2018-Apr-18 09:00N 39°17' W 076°36'0 0.0
2018-Apr-18 08:30N 39°17' W 076°36'0 0.0
2018-Apr-18 08:00N 39°17' W 076°36'0 0.0
2018-Apr-18 07:30N 39°17' W 076°36'0 0.0
2018-Apr-18 07:00N 39°17' W 076°36'0 0.0
2018-Apr-18 06:30N 39°17' W 076°36'0 0.0
2018-Apr-18 06:00N 39°17' W 076°36'0 0.0
2018-Apr-18 05:30N 39°17' W 076°36'0 0.0
2018-Apr-18 05:00N 39°17' W 076°36'0 0.0
2018-Apr-18 04:30N 39°17' W 076°36'0 0.0
2018-Apr-18 04:00N 39°17' W 076°36'0 0.0
2018-Apr-18 03:30N 39°17' W 076°36'0 0.0
2018-Apr-18 03:00N 39°17' W 076°36'0 0.0
2018-Apr-18 02:30N 39°17' W 076°36'0 0.0
2018-Apr-18 02:00N 39°17' W 076°36'0 0.0
2018-Apr-18 01:30N 39°17' W 076°36'0 0.0
2018-Apr-18 01:00N 39°17' W 076°36'0 0.0
2018-Apr-18 00:30N 39°17' W 076°36'0 0.0
2018-Apr-18 00:00N 39°17' W 076°36'0 0.0
2018-Apr-17 23:30N 39°17' W 076°36'0 0.0
2018-Apr-17 23:00N 39°17' W 076°36'0 0.0
2018-Apr-17 22:30N 39°17' W 076°36'0 0.0
2018-Apr-17 22:00N 39°17' W 076°36'0 0.0
2018-Apr-17 21:29N 39°17' W 076°36'0 0.0
2018-Apr-17 21:00N 39°17' W 076°36'0 0.0
2018-Apr-17 20:30N 39°17' W 076°36'0 0.0
2018-Apr-17 20:00N 39°17' W 076°36'0 0.0
2018-Apr-17 19:30N 39°17' W 076°36'0 0.0
2018-Apr-17 19:00N 39°17' W 076°36'0 0.0
2018-Apr-17 18:30N 39°17' W 076°36'0 0.0
2018-Apr-17 18:00N 39°17' W 076°36'0 0.0
2018-Apr-17 17:29N 39°17' W 076°36'0 0.0
2018-Apr-17 17:00N 39°17' W 076°36'0 0.0
2018-Apr-17 16:30N 39°17' W 076°36'0 0.0
2018-Apr-17 15:59N 39°17' W 076°36'0 0.0
2018-Apr-17 15:30N 39°17' W 076°36'0 0.0
2018-Apr-17 15:00N 39°17' W 076°36'0 0.0
2018-Apr-17 14:29N 39°17' W 076°36'0 0.0
2018-Apr-17 14:00N 39°17' W 076°36'0 0.0
2018-Apr-17 13:30N 39°17' W 076°36'0 0.0
2018-Apr-17 13:00N 39°17' W 076°36'0 0.0
2018-Apr-17 12:30N 39°17' W 076°36'0 0.0
2018-Apr-17 12:00N 39°17' W 076°36'0 0.0
2018-Apr-17 11:30N 39°17' W 076°36'0 0.0
2018-Apr-17 11:00N 39°17' W 076°36'0 0.0
2018-Apr-17 10:30N 39°17' W 076°36'0 0.0
2018-Apr-17 10:00N 39°17' W 076°36'0 0.0
2018-Apr-17 09:30N 39°17' W 076°36'0 0.0
2018-Apr-17 09:00N 39°17' W 076°36'0 0.0
2018-Apr-17 08:30N 39°17' W 076°36'0 0.0
2018-Apr-17 08:00N 39°17' W 076°36'0 0.0
2018-Apr-17 07:30N 39°17' W 076°36'0 0.0
2018-Apr-17 07:00N 39°17' W 076°36'0 0.0
2018-Apr-17 06:26N 39°17' W 076°36'0 0.0
2018-Apr-17 06:00N 39°17' W 076°36'0 0.0
2018-Apr-17 05:30N 39°17' W 076°36'0 0.0
2018-Apr-17 05:00N 39°17' W 076°36'0 0.0
2018-Apr-17 04:29N 39°17' W 076°36'0 0.0
2018-Apr-17 04:00N 39°17' W 076°36'0 0.0
2018-Apr-17 03:30N 39°17' W 076°36'0 0.0
2018-Apr-17 02:59N 39°17' W 076°36'0 0.0
2018-Apr-17 02:30N 39°17' W 076°36'0 0.0
2018-Apr-17 02:00N 39°17' W 076°36'0 0.0
2018-Apr-17 01:29N 39°17' W 076°36'0 0.0
2018-Apr-17 01:00N 39°17' W 076°36'0 0.0
2018-Apr-17 00:30N 39°17' W 076°36'0 0.0
2018-Apr-16 23:59N 39°17' W 076°36'0 0.0
2018-Apr-16 23:30N 39°17' W 076°36'0 0.0
2018-Apr-16 22:59N 39°17' W 076°36'0 0.0
2018-Apr-16 22:30N 39°17' W 076°36'0 0.0
2018-Apr-16 21:59N 39°17' W 076°36'0 0.0
2018-Apr-16 21:29N 39°17' W 076°36'0 0.0
2018-Apr-16 21:00N 39°17' W 076°36'0 0.0
2018-Apr-16 20:30N 39°17' W 076°36'0 0.0
2018-Apr-16 20:00N 39°17' W 076°36'0 0.0
2018-Apr-16 19:30N 39°17' W 076°36'0 0.0
2018-Apr-16 18:59N 39°17' W 076°36'0 0.0
2018-Apr-16 18:30N 39°17' W 076°36'0 0.0
2018-Apr-16 17:56N 39°17' W 076°36'0 0.0
2018-Apr-16 17:30N 39°17' W 076°36'0 0.0
2018-Apr-16 17:00N 39°17' W 076°36'0 0.0
2018-Apr-16 16:26N 39°17' W 076°36'0 0.0
2018-Apr-16 16:00N 39°17' W 076°36'0 0.0
2018-Apr-16 15:29N 39°17' W 076°36'0 0.0
2018-Apr-16 15:00N 39°17' W 076°36'0 0.0
2018-Apr-16 14:29N 39°17' W 076°36'0 0.0
2018-Apr-16 14:00N 39°17' W 076°36'0 0.0
2018-Apr-16 13:30N 39°17' W 076°36'0 0.0
2018-Apr-16 13:00N 39°17' W 076°36'0 0.0
2018-Apr-16 12:30N 39°17' W 076°36'0 0.0
2018-Apr-16 12:00N 39°17' W 076°36'0 0.0
2018-Apr-16 11:29N 39°17' W 076°36'0 0.0
2018-Apr-16 10:56N 39°17' W 076°36'0 0.0
2018-Apr-16 10:26N 39°17' W 076°36'0 0.0
2018-Apr-16 10:00N 39°17' W 076°36'0 0.0
2018-Apr-16 09:30N 39°17' W 076°36'0 0.0
2018-Apr-16 08:59N 39°17' W 076°36'0 0.0
2018-Apr-16 08:30N 39°17' W 076°36'0 0.0
2018-Apr-16 08:00N 39°17' W 076°36'0 0.0
2018-Apr-16 07:30N 39°17' W 076°36'0 0.0
2018-Apr-16 06:56N 39°17' W 076°36'0 0.0
2018-Apr-16 06:29N 39°17' W 076°36'0 0.0
2018-Apr-16 06:00N 39°17' W 076°36'0 0.0
2018-Apr-16 05:30N 39°17' W 076°36'0 0.0
2018-Apr-16 05:00N 39°17' W 076°36'0 0.0
2018-Apr-16 04:29N 39°17' W 076°36'0 0.0
2018-Apr-16 04:00N 39°17' W 076°36'0 0.0
2018-Apr-16 03:30N 39°17' W 076°36'0 0.0
2018-Apr-16 03:00N 39°17' W 076°36'0 0.0
2018-Apr-16 02:30N 39°17' W 076°36'0 0.0
2018-Apr-16 02:00N 39°17' W 076°36'0 0.0
2018-Apr-16 01:29N 39°17' W 076°36'0 0.0
2018-Apr-16 01:00N 39°17' W 076°36'0 0.0
2018-Apr-16 00:26N 39°17' W 076°36'0 0.0
2018-Apr-15 23:59N 39°17' W 076°36'0 0.0
2018-Apr-15 23:30N 39°17' W 076°36'0 0.0
2018-Apr-15 22:56N 39°17' W 076°36'0 0.0
2018-Apr-15 22:26N 39°17' W 076°36'0 0.0
2018-Apr-15 21:56N 39°17' W 076°36'0 0.0
2018-Apr-15 21:26N 39°17' W 076°36'0 0.0
2018-Apr-15 21:00N 39°17' W 076°36'0 0.0
2018-Apr-15 20:30N 39°17' W 076°36'0 0.0
2018-Apr-15 19:59N 39°17' W 076°36'  

Dump ship's entire track history